createdAt,value
2023-02-26T00:00:03.827Z,111602.80
2023-02-26T00:01:06.489Z,113164.86
2023-02-26T00:02:10.033Z,115118.26
2023-02-26T00:03:13.320Z,114727.50
2023-02-26T00:04:16.322Z,112904.47
2023-02-26T00:05:19.424Z,107830.33
2023-02-26T00:06:22.405Z,107310.25
2023-02-26T00:07:25.875Z,96471.05
2023-02-26T00:08:28.568Z,91044.09
2023-02-26T00:09:32.173Z,109390.93
2023-02-26T00:10:34.959Z,106140.34
2023-02-26T00:11:38.080Z,83781.11
2023-02-26T00:12:41.169Z,41626.15
2023-02-26T00:13:44.162Z,37380.02
2023-02-26T00:14:47.137Z,36087.73
2023-02-26T00:15:50.006Z,23056.86
2023-02-26T00:16:53.313Z,24485.12
2023-02-26T00:17:56.986Z,26762.88
2023-02-26T00:19:00.927Z,27918.68
2023-02-26T00:20:03.843Z,23351.22
2023-02-26T00:21:06.613Z,24028.54
2023-02-26T00:22:09.575Z,27132.18
2023-02-26T00:23:12.460Z,30629.84
2023-02-26T00:24:15.149Z,30467.43
2023-02-26T00:25:18.111Z,27220.78
2023-02-26T00:26:20.993Z,34203.43
2023-02-26T00:27:23.858Z,32631.05
2023-02-26T00:28:27.375Z,26501.10
2023-02-26T00:29:30.849Z,26773.82
2023-02-26T00:30:34.156Z,25650.20
2023-02-26T00:31:37.109Z,25786.53
2023-02-26T00:32:40.346Z,32814.47
2023-02-26T00:33:43.586Z,30216.37
2023-02-26T00:34:46.849Z,33459.53
2023-02-26T00:35:50.133Z,36510.79
2023-02-26T00:36:53.026Z,34715.06
2023-02-26T00:37:56.225Z,40162.66
2023-02-26T00:38:59.725Z,39943.93
2023-02-26T00:40:02.875Z,46295.98
2023-02-26T00:41:06.019Z,43180.14
2023-02-26T00:42:09.352Z,51384.99
2023-02-26T00:43:12.442Z,33567.22
2023-02-26T00:44:15.693Z,38618.84
2023-02-26T00:45:18.775Z,45147.75
2023-02-26T00:46:21.932Z,32271.19
2023-02-26T00:47:25.242Z,28288.09
2023-02-26T00:48:28.776Z,25927.84
2023-02-26T00:49:32.481Z,30839.08
2023-02-26T00:50:35.399Z,31460.89
2023-02-26T00:51:38.474Z,39354.72
2023-02-26T00:52:41.673Z,38934.34
2023-02-26T00:53:44.755Z,38628.82
2023-02-26T00:54:48.021Z,39839.06
2023-02-26T00:55:51.111Z,34588.39
2023-02-26T00:56:54.190Z,27817.12
2023-02-26T00:57:57.187Z,46644.11
2023-02-26T00:59:00.249Z,53950.00
2023-02-26T01:00:03.572Z,41867.95
2023-02-26T01:01:06.840Z,37108.55
2023-02-26T01:02:09.797Z,36211.45
2023-02-26T01:03:12.783Z,47515.58
2023-02-26T01:04:15.735Z,54150.46
2023-02-26T01:05:18.623Z,67959.51
2023-02-26T01:06:21.733Z,85524.41
2023-02-26T01:07:24.693Z,90969.23
2023-02-26T01:08:27.658Z,96793.19
2023-02-26T01:09:31.030Z,101204.44
2023-02-26T01:10:34.538Z,95840.00
2023-02-26T01:11:37.912Z,62492.61
2023-02-26T01:12:41.037Z,73447.00
2023-02-26T01:13:44.063Z,105750.45
2023-02-26T01:14:46.844Z,110952.13
2023-02-26T01:15:50.212Z,114597.26
2023-02-26T01:16:53.207Z,115769.59
2023-02-26T01:17:56.506Z,114857.75
2023-02-26T01:18:59.927Z,116681.65
2023-02-26T01:20:03.076Z,116943.30
2023-02-26T01:21:06.658Z,116943.30
2023-02-26T01:22:09.831Z,116943.30
2023-02-26T01:23:12.900Z,116943.30
2023-02-26T01:24:15.993Z,116943.30
2023-02-26T01:25:19.269Z,116942.28
2023-02-26T01:26:22.534Z,116943.30
2023-02-26T01:27:26.122Z,116943.30
2023-02-26T01:28:29.089Z,116943.30
2023-02-26T01:29:32.222Z,116943.30
2023-02-26T01:30:35.615Z,116943.30
2023-02-26T01:31:39.365Z,116943.30
2023-02-26T01:32:42.643Z,116943.30
2023-02-26T01:33:45.671Z,116943.30
2023-02-26T01:34:49.146Z,116943.30
2023-02-26T01:35:52.333Z,116943.30
2023-02-26T01:36:56.121Z,116943.30
2023-02-26T01:37:59.302Z,116943.30
2023-02-26T01:39:02.593Z,116943.30
2023-02-26T01:40:05.799Z,116943.30
2023-02-26T01:41:08.915Z,116943.30
2023-02-26T01:42:12.454Z,116943.30
2023-02-26T01:43:15.228Z,116943.30
2023-02-26T01:44:18.397Z,116943.30
2023-02-26T01:45:21.180Z,116943.30
2023-02-26T01:46:24.160Z,116943.30
2023-02-26T01:47:27.020Z,116943.30
2023-02-26T01:48:29.692Z,116943.30
2023-02-26T01:49:32.675Z,116943.30
2023-02-26T01:50:35.952Z,116943.30
2023-02-26T01:51:39.344Z,116942.28
2023-02-26T01:52:42.849Z,116943.30
2023-02-26T01:53:45.805Z,116943.30
2023-02-26T01:54:49.231Z,116551.34
2023-02-26T01:55:52.299Z,116811.96
2023-02-26T01:56:55.448Z,116943.30
2023-02-26T01:57:58.738Z,116943.30
2023-02-26T01:59:01.821Z,115769.59
2023-02-26T02:00:05.003Z,116681.65
2023-02-26T02:01:08.175Z,116943.30
2023-02-26T02:02:11.230Z,116943.30
2023-02-26T02:03:14.577Z,116943.30
2023-02-26T02:04:17.375Z,116943.30
2023-02-26T02:05:20.710Z,116942.28
2023-02-26T02:06:24.426Z,115899.87
2023-02-26T02:07:27.686Z,113946.10
2023-02-26T02:08:30.978Z,116943.30
2023-02-26T02:09:34.138Z,116943.30
2023-02-26T02:10:37.220Z,116943.30
2023-02-26T02:11:40.216Z,115509.05
2023-02-26T02:12:43.222Z,110171.45
2023-02-26T02:13:46.146Z,113425.25
2023-02-26T02:14:49.344Z,115509.05
2023-02-26T02:15:52.723Z,116943.30
2023-02-26T02:16:55.910Z,116943.30
2023-02-26T02:17:59.310Z,116942.28
2023-02-26T02:19:02.055Z,116943.30
2023-02-26T02:20:05.453Z,116943.30
2023-02-26T02:21:08.320Z,116943.30
2023-02-26T02:22:11.299Z,116943.30
2023-02-26T02:23:14.162Z,115769.59
2023-02-26T02:24:16.953Z,110952.13
2023-02-26T02:25:19.906Z,114988.00
2023-02-26T02:26:22.912Z,116421.05
2023-02-26T02:27:25.769Z,116943.30
2023-02-26T02:28:28.793Z,116943.30
2023-02-26T02:29:31.936Z,116943.30
2023-02-26T02:30:34.935Z,116943.30
2023-02-26T02:31:38.343Z,116943.30
2023-02-26T02:32:41.482Z,116943.30
2023-02-26T02:33:44.668Z,116943.30
2023-02-26T02:34:48.000Z,116943.30
2023-02-26T02:35:51.026Z,116943.30
2023-02-26T02:36:53.896Z,116943.30
2023-02-26T02:37:57.077Z,116943.30
2023-02-26T02:39:00.155Z,116943.30
2023-02-26T02:40:03.551Z,116943.30
2023-02-26T02:41:06.656Z,116943.30
2023-02-26T02:42:09.704Z,116943.30
2023-02-26T02:43:12.677Z,116943.30
2023-02-26T02:44:15.786Z,116943.30
2023-02-26T02:45:19.074Z,116943.30
2023-02-26T02:46:22.637Z,116943.30
2023-02-26T02:47:25.711Z,116943.30
2023-02-26T02:48:28.825Z,116943.30
2023-02-26T02:49:31.761Z,116943.30
2023-02-26T02:50:35.053Z,116943.30
2023-02-26T02:51:38.146Z,116943.30
2023-02-26T02:52:41.212Z,116943.30
2023-02-26T02:53:44.492Z,116943.30
2023-02-26T02:54:47.474Z,116943.30
2023-02-26T02:55:50.894Z,116943.30
2023-02-26T02:56:53.837Z,116943.30
2023-02-26T02:57:56.714Z,116943.30
2023-02-26T02:58:59.684Z,116943.30
2023-02-26T03:00:02.792Z,116943.30
2023-02-26T03:01:05.856Z,116943.30
2023-02-26T03:02:08.622Z,116943.30
2023-02-26T03:03:11.695Z,116943.30
2023-02-26T03:04:14.476Z,116943.30
2023-02-26T03:05:17.186Z,116943.30
2023-02-26T03:06:20.016Z,116943.30
2023-02-26T03:07:22.990Z,116943.30
2023-02-26T03:08:26.238Z,116943.30
2023-02-26T03:09:29.462Z,116942.28
2023-02-26T03:10:32.853Z,116943.30
2023-02-26T03:11:36.228Z,116811.96
2023-02-26T03:12:39.721Z,116290.75
2023-02-26T03:13:42.831Z,114857.75
2023-02-26T03:14:45.773Z,116030.16
2023-02-26T03:15:48.899Z,115769.59
2023-02-26T03:16:52.424Z,116551.34
2023-02-26T03:17:55.448Z,116943.30
2023-02-26T03:18:58.395Z,115248.52
2023-02-26T03:20:01.502Z,114597.26
2023-02-26T03:21:04.563Z,109911.27
2023-02-26T03:22:07.747Z,115769.59
2023-02-26T03:23:10.840Z,116943.30
2023-02-26T03:24:14.555Z,116943.30
2023-02-26T03:25:17.516Z,116943.30
2023-02-26T03:26:20.476Z,113555.46
2023-02-26T03:27:23.779Z,116030.16
2023-02-26T03:28:27.058Z,115769.59
2023-02-26T03:29:30.275Z,115899.87
2023-02-26T03:30:33.437Z,116942.28
2023-02-26T03:31:36.875Z,116681.65
2023-02-26T03:32:40.139Z,115118.26
2023-02-26T03:33:43.463Z,112644.11
2023-02-26T03:34:47.178Z,111993.27
2023-02-26T03:35:50.540Z,113685.67
2023-02-26T03:36:53.314Z,115118.26
2023-02-26T03:37:56.606Z,114857.75
2023-02-26T03:38:59.693Z,116030.16
2023-02-26T03:40:02.655Z,116943.30
2023-02-26T03:41:05.334Z,116943.30
2023-02-26T03:42:08.126Z,112644.11
2023-02-26T03:43:11.493Z,99387.46
2023-02-26T03:44:14.677Z,90275.33
2023-02-26T03:45:18.062Z,89785.83
2023-02-26T03:46:21.494Z,74987.31
2023-02-26T03:47:24.948Z,109130.78
2023-02-26T03:48:28.746Z,111993.27
2023-02-26T03:49:32.129Z,115899.87
2023-02-26T03:50:35.294Z,116421.05
2023-02-26T03:51:39.093Z,116681.65
2023-02-26T03:52:42.278Z,115509.05
2023-02-26T03:53:45.681Z,115639.32
2023-02-26T03:54:48.956Z,115899.87
2023-02-26T03:55:52.138Z,116160.45
2023-02-26T03:56:54.920Z,116160.45
2023-02-26T03:57:58.284Z,113425.25
2023-02-26T03:59:01.670Z,113815.89
2023-02-26T04:00:04.923Z,115899.87
2023-02-26T04:01:08.451Z,113946.10
2023-02-26T04:02:12.030Z,114857.75
2023-02-26T04:03:15.559Z,116811.96
2023-02-26T04:04:19.341Z,116551.34
2023-02-26T04:05:22.709Z,110171.45
2023-02-26T04:06:25.962Z,114467.02
2023-02-26T04:07:28.790Z,113946.10
2023-02-26T04:08:31.436Z,114336.78
2023-02-26T04:09:34.327Z,115248.52
2023-02-26T04:10:37.179Z,116160.45
2023-02-26T04:11:40.064Z,115248.52
2023-02-26T04:12:42.739Z,111732.95
2023-02-26T04:13:45.616Z,114467.02
2023-02-26T04:14:49.202Z,115639.32
2023-02-26T04:15:52.181Z,114988.00
2023-02-26T04:16:55.300Z,112644.11
2023-02-26T04:17:58.344Z,108740.61
2023-02-26T04:19:01.418Z,105750.45
2023-02-26T04:20:04.712Z,111472.66
2023-02-26T04:21:07.879Z,114597.26
2023-02-26T04:22:10.878Z,114727.50
2023-02-26T04:23:13.836Z,116290.75
2023-02-26T04:24:16.909Z,112513.92
2023-02-26T04:25:20.193Z,113555.46
2023-02-26T04:26:23.573Z,115769.59
2023-02-26T04:27:26.663Z,116421.05
2023-02-26T04:28:29.538Z,116942.28
2023-02-26T04:29:32.826Z,116942.28
2023-02-26T04:30:35.855Z,116421.05
2023-02-26T04:31:38.817Z,116942.28
2023-02-26T04:32:41.959Z,113164.86
2023-02-26T04:33:44.933Z,113946.10
2023-02-26T04:34:48.036Z,106660.27
2023-02-26T04:35:51.419Z,109260.86
2023-02-26T04:36:54.589Z,103671.64
2023-02-26T04:37:57.454Z,112253.59
2023-02-26T04:39:00.629Z,114206.55
2023-02-26T04:40:03.812Z,114988.00
2023-02-26T04:41:06.989Z,112253.59
2023-02-26T04:42:09.977Z,110952.13
2023-02-26T04:43:13.064Z,114857.75
2023-02-26T04:44:17.364Z,116160.45
2023-02-26T04:45:20.240Z,116421.05
2023-02-26T04:46:23.708Z,116160.45
2023-02-26T04:47:26.940Z,114727.50
2023-02-26T04:48:29.878Z,112513.92
2023-02-26T04:49:32.764Z,111342.52
2023-02-26T04:50:35.421Z,112904.47
2023-02-26T04:51:38.293Z,114076.33
2023-02-26T04:52:41.188Z,112644.11
2023-02-26T04:53:44.212Z,108740.61
2023-02-26T04:54:47.417Z,105880.41
2023-02-26T04:55:52.335Z,113425.25
2023-02-26T04:56:55.248Z,111212.39
2023-02-26T04:57:58.258Z,110952.13
2023-02-26T04:59:01.405Z,109781.17
2023-02-26T05:00:04.568Z,111732.95
2023-02-26T05:01:07.553Z,112774.28
2023-02-26T05:02:10.730Z,116942.28
2023-02-26T05:03:13.720Z,115899.87
2023-02-26T05:04:16.723Z,114857.75
2023-02-26T05:05:19.694Z,112253.59
2023-02-26T05:06:22.861Z,104580.98
2023-02-26T05:07:26.030Z,95952.43
2023-02-26T05:08:29.003Z,103671.64
2023-02-26T05:09:31.877Z,94943.75
2023-02-26T05:10:34.965Z,104710.91
2023-02-26T05:11:38.156Z,106920.25
2023-02-26T05:12:41.505Z,106790.25
2023-02-26T05:13:44.517Z,108740.61
2023-02-26T05:14:47.707Z,108480.50
2023-02-26T05:15:50.895Z,109390.93
2023-02-26T05:16:54.083Z,109781.17
2023-02-26T05:17:57.459Z,110561.77
2023-02-26T05:19:02.454Z,111602.80
2023-02-26T05:20:05.152Z,114336.78
2023-02-26T05:21:08.155Z,115118.26
2023-02-26T05:22:11.104Z,112383.76
2023-02-26T05:23:13.966Z,103281.98
2023-02-26T05:24:16.946Z,102892.36
2023-02-26T05:25:20.128Z,105100.71
2023-02-26T05:26:23.890Z,103411.87
2023-02-26T05:27:27.003Z,106400.30
2023-02-26T05:28:30.299Z,113555.46
2023-02-26T05:29:33.372Z,114467.02
2023-02-26T05:30:36.609Z,114336.78
2023-02-26T05:31:40.162Z,111342.52
2023-02-26T05:32:43.025Z,116160.45
2023-02-26T05:33:46.197Z,114727.50
2023-02-26T05:34:49.039Z,114988.00
2023-02-26T05:35:51.939Z,116943.30
2023-02-26T05:36:54.616Z,115118.26
2023-02-26T05:37:57.530Z,113946.10
2023-02-26T05:39:00.576Z,112644.11
2023-02-26T05:40:03.811Z,115769.59
2023-02-26T05:41:06.836Z,116421.05
2023-02-26T05:42:09.810Z,116943.30
2023-02-26T05:43:12.979Z,116943.30
2023-02-26T05:44:16.177Z,116943.30
2023-02-26T05:45:19.256Z,114988.00
2023-02-26T05:46:22.407Z,116943.30
2023-02-26T05:47:25.858Z,116943.30
2023-02-26T05:48:29.003Z,116943.30
2023-02-26T05:49:32.592Z,116943.30
2023-02-26T05:50:35.674Z,116943.30
2023-02-26T05:51:38.754Z,116943.30
2023-02-26T05:52:41.724Z,116943.30
2023-02-26T05:53:44.797Z,116943.30
2023-02-26T05:54:48.292Z,116943.30
2023-02-26T05:55:51.165Z,116943.30
2023-02-26T05:56:54.146Z,116943.30
2023-02-26T05:57:57.141Z,116943.30
2023-02-26T05:59:00.096Z,116943.30
2023-02-26T06:00:03.496Z,116943.30
2023-02-26T06:01:06.567Z,116943.30
2023-02-26T06:02:09.668Z,116943.30
2023-02-26T06:03:12.577Z,116943.30
2023-02-26T06:04:15.718Z,116943.30
2023-02-26T06:05:18.574Z,116943.30
2023-02-26T06:06:22.553Z,116943.30
2023-02-26T06:07:25.544Z,116943.30
2023-02-26T06:08:28.390Z,116943.30
2023-02-26T06:09:31.397Z,116943.30
2023-02-26T06:10:34.508Z,116943.30
2023-02-26T06:11:37.674Z,116943.30
2023-02-26T06:12:40.744Z,116943.30
2023-02-26T06:13:43.721Z,116943.30
2023-02-26T06:14:46.696Z,116943.30
2023-02-26T06:15:49.679Z,116943.30
2023-02-26T06:16:52.356Z,116943.30
2023-02-26T06:17:55.046Z,116942.28
2023-02-26T06:18:57.591Z,116943.30
2023-02-26T06:20:00.355Z,116943.30
2023-02-26T06:21:03.249Z,116943.30
2023-02-26T06:22:06.116Z,116943.30
2023-02-26T06:23:08.886Z,116943.30
2023-02-26T06:24:11.657Z,116943.30
2023-02-26T06:25:14.754Z,116943.30
2023-02-26T06:26:18.014Z,116943.30
2023-02-26T06:27:20.877Z,116943.30
2023-02-26T06:28:24.077Z,116943.30
2023-02-26T06:29:27.245Z,116943.30
2023-02-26T06:30:30.267Z,116943.30
2023-02-26T06:31:33.592Z,116943.30
2023-02-26T06:32:36.591Z,116943.30
2023-02-26T06:33:39.668Z,116943.30
2023-02-26T06:34:42.552Z,116943.30
2023-02-26T06:35:45.315Z,116943.30
2023-02-26T06:36:48.408Z,116943.30
2023-02-26T06:37:51.515Z,116943.30
2023-02-26T06:38:54.576Z,116943.30
2023-02-26T06:39:57.456Z,116943.30
2023-02-26T06:41:00.549Z,116943.30
2023-02-26T06:42:03.586Z,116943.30
2023-02-26T06:43:06.676Z,116943.30
2023-02-26T06:44:09.650Z,116943.30
2023-02-26T06:45:12.632Z,116943.30
2023-02-26T06:46:15.751Z,116943.30
2023-02-26T06:47:19.211Z,116943.30
2023-02-26T06:48:22.174Z,116943.30
2023-02-26T06:49:25.054Z,116943.30
2023-02-26T06:50:28.025Z,116943.30
2023-02-26T06:51:31.100Z,116943.30
2023-02-26T06:52:34.393Z,116943.30
2023-02-26T06:53:37.268Z,116943.30
2023-02-26T06:54:40.260Z,116943.30
2023-02-26T06:55:43.343Z,116943.30
2023-02-26T06:56:46.480Z,116943.30
2023-02-26T06:57:49.708Z,116943.30
2023-02-26T06:58:52.756Z,116943.30
2023-02-26T06:59:55.706Z,116943.30
2023-02-26T07:00:58.845Z,116943.30
2023-02-26T07:02:01.672Z,116943.30
2023-02-26T07:03:04.795Z,116943.30
2023-02-26T07:04:07.542Z,116943.30
2023-02-26T07:05:10.660Z,116943.30
2023-02-26T07:06:26.599Z,116943.30
2023-02-26T07:07:17.856Z,116943.30
2023-02-26T07:08:20.583Z,116943.30
2023-02-26T07:09:23.526Z,116943.30
2023-02-26T07:10:26.357Z,116943.30
2023-02-26T07:11:29.425Z,116943.30
2023-02-26T07:12:32.407Z,116943.30
2023-02-26T07:13:35.770Z,116943.30
2023-02-26T07:14:39.064Z,116943.30
2023-02-26T07:15:43.254Z,116943.30
2023-02-26T07:16:46.881Z,116943.30
2023-02-26T07:17:49.841Z,116943.30
2023-02-26T07:18:53.026Z,116943.30
2023-02-26T07:19:55.896Z,116943.30
2023-02-26T07:20:58.867Z,116943.30
2023-02-26T07:22:01.645Z,116943.30
2023-02-26T07:23:04.728Z,116943.30
2023-02-26T07:24:08.108Z,116943.30
2023-02-26T07:25:11.094Z,116943.30
2023-02-26T07:26:14.065Z,116943.30
2023-02-26T07:27:17.036Z,116943.30
2023-02-26T07:28:20.116Z,116943.30
2023-02-26T07:29:23.607Z,116943.30
2023-02-26T07:30:26.616Z,116943.30
2023-02-26T07:31:29.825Z,116943.30
2023-02-26T07:32:33.327Z,116943.30
2023-02-26T07:33:36.438Z,116943.30
2023-02-26T07:34:39.520Z,116943.30
2023-02-26T07:35:42.617Z,116943.30
2023-02-26T07:36:45.765Z,116943.30
2023-02-26T07:37:48.744Z,116943.30
2023-02-26T07:38:51.732Z,116943.30
2023-02-26T07:39:54.899Z,116943.30
2023-02-26T07:40:57.919Z,116943.30
2023-02-26T07:42:00.755Z,116943.30
2023-02-26T07:43:03.631Z,116943.30
2023-02-26T07:44:06.500Z,116943.30
2023-02-26T07:45:09.999Z,116943.30
2023-02-26T07:46:12.811Z,116943.30
2023-02-26T07:47:15.873Z,116943.30
2023-02-26T07:48:19.029Z,116943.30
2023-02-26T07:49:21.711Z,116943.30
2023-02-26T07:50:24.473Z,116943.30
2023-02-26T07:51:27.405Z,116943.30
2023-02-26T07:52:30.116Z,116943.30
2023-02-26T07:53:32.989Z,116943.30
2023-02-26T07:54:35.705Z,116943.30
2023-02-26T07:55:38.753Z,116943.30
2023-02-26T07:56:41.521Z,116943.30
2023-02-26T07:57:44.490Z,116943.30
2023-02-26T07:58:47.487Z,116943.30
2023-02-26T07:59:50.346Z,116943.30
2023-02-26T08:00:53.654Z,116943.30
2023-02-26T08:01:56.592Z,116943.30
2023-02-26T08:02:59.590Z,116943.30
2023-02-26T08:04:02.678Z,116943.30
2023-02-26T08:05:05.546Z,116943.30
2023-02-26T08:06:08.628Z,116943.30
2023-02-26T08:07:11.181Z,116943.30
2023-02-26T08:08:13.913Z,116943.30
2023-02-26T08:09:16.933Z,116943.30
2023-02-26T08:10:20.124Z,116943.30
2023-02-26T08:11:23.293Z,116943.30
2023-02-26T08:12:26.167Z,116943.30
2023-02-26T08:13:29.315Z,116943.30
2023-02-26T08:14:32.528Z,116943.30
2023-02-26T08:15:35.774Z,116943.30
2023-02-26T08:16:39.088Z,116943.30
2023-02-26T08:17:42.136Z,116943.30
2023-02-26T08:18:44.948Z,116943.30
2023-02-26T08:19:47.814Z,116943.30
2023-02-26T08:20:50.701Z,116943.30
2023-02-26T08:21:53.562Z,116943.30
2023-02-26T08:22:56.547Z,116943.30
2023-02-26T08:23:59.424Z,116943.30
2023-02-26T08:25:02.611Z,116943.30
2023-02-26T08:26:05.785Z,116943.30
2023-02-26T08:27:08.463Z,116943.30
2023-02-26T08:28:11.227Z,116943.30
2023-02-26T08:29:14.103Z,116943.30
2023-02-26T08:30:17.266Z,116943.30
2023-02-26T08:31:20.469Z,116943.30
2023-02-26T08:32:23.882Z,116943.30
2023-02-26T08:33:26.636Z,116943.30
2023-02-26T08:34:29.900Z,116943.30
2023-02-26T08:35:33.087Z,116943.30
2023-02-26T08:36:36.187Z,116943.30
2023-02-26T08:37:39.450Z,116943.30
2023-02-26T08:38:42.119Z,116943.30
2023-02-26T08:39:44.899Z,116943.30
2023-02-26T08:40:47.560Z,116943.30
2023-02-26T08:41:50.544Z,116943.30
2023-02-26T08:42:53.615Z,116943.30
2023-02-26T08:43:56.312Z,116943.30
2023-02-26T08:44:59.369Z,116943.30
2023-02-26T08:46:02.444Z,116943.30
2023-02-26T08:47:05.460Z,116943.30
2023-02-26T08:48:10.753Z,116943.30
2023-02-26T08:49:13.329Z,116943.30
2023-02-26T08:50:16.200Z,116943.30
2023-02-26T08:51:19.177Z,116943.30
2023-02-26T08:52:22.282Z,116943.30
2023-02-26T08:53:25.444Z,116943.30
2023-02-26T08:54:28.619Z,116942.28
2023-02-26T08:55:31.610Z,116942.28
2023-02-26T08:56:34.594Z,116943.30
2023-02-26T08:57:37.586Z,116942.28
2023-02-26T08:58:40.550Z,116942.28
2023-02-26T08:59:43.632Z,116942.28
2023-02-26T09:00:46.505Z,116942.28
2023-02-26T09:01:49.435Z,116942.28
2023-02-26T09:02:52.603Z,116681.65
2023-02-26T09:03:55.643Z,116551.34
2023-02-26T09:04:58.314Z,116551.34
2023-02-26T09:06:01.280Z,116551.34
2023-02-26T09:07:04.370Z,116160.45
2023-02-26T09:08:07.124Z,116421.05
2023-02-26T09:09:10.237Z,116551.34
2023-02-26T09:10:13.079Z,116421.05
2023-02-26T09:11:15.953Z,116290.75
2023-02-26T09:12:19.139Z,116290.75
2023-02-26T09:13:21.927Z,116160.45
2023-02-26T09:14:24.990Z,116160.45
2023-02-26T09:15:28.016Z,116290.75
2023-02-26T09:16:30.816Z,116290.75
2023-02-26T09:17:33.618Z,116421.05
2023-02-26T09:18:36.304Z,116551.34
2023-02-26T09:19:39.049Z,116551.34
2023-02-26T09:20:41.731Z,116551.34
2023-02-26T09:21:44.359Z,116551.34
2023-02-26T09:22:47.193Z,116551.34
2023-02-26T09:23:50.257Z,116551.34
2023-02-26T09:24:53.684Z,116551.34
2023-02-26T09:25:56.513Z,116551.34
2023-02-26T09:26:59.485Z,116681.65
2023-02-26T09:28:02.527Z,116551.34
2023-02-26T09:29:05.436Z,116551.34
2023-02-26T09:30:08.924Z,116681.65
2023-02-26T09:31:11.947Z,116811.96
2023-02-26T09:32:14.978Z,116811.96
2023-02-26T09:33:18.155Z,116811.96
2023-02-26T09:34:21.443Z,116681.65
2023-02-26T09:35:24.632Z,116811.96
2023-02-26T09:36:28.026Z,116681.65
2023-02-26T09:37:31.508Z,116681.65
2023-02-26T09:38:34.792Z,116681.65
2023-02-26T09:39:37.584Z,116551.34
2023-02-26T09:40:40.651Z,116421.05
2023-02-26T09:41:43.541Z,116421.05
2023-02-26T09:42:46.505Z,116290.75
2023-02-26T09:43:49.780Z,116290.75
2023-02-26T09:44:52.951Z,116421.05
2023-02-26T09:45:56.460Z,116421.05
2023-02-26T09:46:59.414Z,116160.45
2023-02-26T09:48:02.293Z,116290.75
2023-02-26T09:49:05.173Z,116290.75
2023-02-26T09:50:08.151Z,116290.75
2023-02-26T09:51:11.124Z,116030.16
2023-02-26T09:52:14.205Z,115899.87
2023-02-26T09:53:16.987Z,115899.87
2023-02-26T09:54:19.965Z,115639.32
2023-02-26T09:55:22.735Z,115509.05
2023-02-26T09:56:26.112Z,115378.78
2023-02-26T09:57:28.995Z,115378.78
2023-02-26T09:58:31.973Z,115118.26
2023-02-26T09:59:34.864Z,114988.00
2023-02-26T10:00:37.718Z,114597.26
2023-02-26T10:01:40.632Z,114597.26
2023-02-26T10:02:43.394Z,114727.50
2023-02-26T10:03:46.175Z,114857.75
2023-02-26T10:04:48.914Z,114467.02
2023-02-26T10:05:51.779Z,114336.78
2023-02-26T10:06:54.757Z,114597.26
2023-02-26T10:07:57.429Z,114727.50
2023-02-26T10:09:00.403Z,114857.75
2023-02-26T10:10:03.382Z,114988.00
2023-02-26T10:11:06.278Z,114727.50
2023-02-26T10:12:09.354Z,114467.02
2023-02-26T10:13:12.211Z,114336.78
2023-02-26T10:14:14.982Z,114467.02
2023-02-26T10:15:18.186Z,114206.55
2023-02-26T10:16:21.068Z,113946.10
2023-02-26T10:17:24.492Z,113685.67
2023-02-26T10:18:27.524Z,113815.89
2023-02-26T10:19:30.387Z,113425.25
2023-02-26T10:20:33.642Z,113685.67
2023-02-26T10:21:36.541Z,113685.67
2023-02-26T10:22:39.739Z,113555.46
2023-02-26T10:23:44.003Z,113295.05
2023-02-26T10:24:47.217Z,113425.25
2023-02-26T10:25:50.498Z,113425.25
2023-02-26T10:26:53.497Z,113555.46
2023-02-26T10:27:56.469Z,113555.46
2023-02-26T10:28:59.453Z,113425.25
2023-02-26T10:30:02.339Z,113164.86
2023-02-26T10:31:05.643Z,112904.47
2023-02-26T10:32:08.690Z,112774.28
2023-02-26T10:33:11.853Z,112774.28
2023-02-26T10:34:14.856Z,112644.11
2023-02-26T10:35:17.827Z,112774.28
2023-02-26T10:36:20.770Z,113164.86
2023-02-26T10:37:23.758Z,113034.66
2023-02-26T10:38:26.829Z,112774.28
2023-02-26T10:39:29.920Z,112774.28
2023-02-26T10:40:33.090Z,112644.11
2023-02-26T10:41:35.864Z,113164.86
2023-02-26T10:42:38.760Z,113555.46
2023-02-26T10:43:41.533Z,113425.25
2023-02-26T10:44:44.284Z,113295.05
2023-02-26T10:45:46.887Z,113034.66
2023-02-26T10:46:49.720Z,113034.66
2023-02-26T10:47:52.392Z,113034.66
2023-02-26T10:48:55.176Z,112774.28
2023-02-26T10:49:57.854Z,112644.11
2023-02-26T10:51:00.872Z,112904.47
2023-02-26T10:52:03.600Z,113034.66
2023-02-26T10:53:06.875Z,113295.05
2023-02-26T10:54:09.541Z,113295.05
2023-02-26T10:55:12.311Z,113164.86
2023-02-26T10:56:15.392Z,113295.05
2023-02-26T10:57:18.901Z,113555.46
2023-02-26T10:58:30.675Z,116943.30
2023-02-26T10:59:33.449Z,113946.10
2023-02-26T11:00:36.338Z,113685.67
2023-02-26T11:01:39.262Z,114076.33
2023-02-26T11:02:42.207Z,113555.46
2023-02-26T11:03:45.035Z,113164.86
2023-02-26T11:04:53.885Z,113034.66
2023-02-26T11:05:52.332Z,113164.86
2023-02-26T11:06:55.353Z,112904.47
2023-02-26T11:07:58.387Z,112253.59
2023-02-26T11:09:01.314Z,112123.42
2023-02-26T11:10:04.157Z,112513.92
2023-02-26T11:11:07.210Z,112644.11
2023-02-26T11:12:10.021Z,112644.11
2023-02-26T11:13:13.060Z,112253.59
2023-02-26T11:14:16.282Z,111993.27
2023-02-26T11:15:19.014Z,111863.11
2023-02-26T11:16:21.986Z,111212.39
2023-02-26T11:17:25.173Z,111863.11
2023-02-26T11:18:28.168Z,112123.42
2023-02-26T11:19:31.246Z,112383.76
2023-02-26T11:20:34.010Z,112904.47
2023-02-26T11:21:36.896Z,112644.11
2023-02-26T11:22:39.757Z,111863.11
2023-02-26T11:23:42.734Z,111602.80
2023-02-26T11:24:45.720Z,111472.66
2023-02-26T11:25:48.671Z,111993.27
2023-02-26T11:26:51.559Z,111993.27
2023-02-26T11:27:54.608Z,111993.27
2023-02-26T11:28:57.417Z,111993.27
2023-02-26T11:30:00.418Z,112383.76
2023-02-26T11:31:03.139Z,112383.76
2023-02-26T11:32:05.994Z,112383.76
2023-02-26T11:33:08.617Z,111993.27
2023-02-26T11:34:11.330Z,111732.95
2023-02-26T11:35:13.944Z,111863.11
2023-02-26T11:36:16.511Z,111993.27
2023-02-26T11:37:19.180Z,111993.27
2023-02-26T11:38:22.488Z,112123.42
2023-02-26T11:39:25.250Z,112513.92
2023-02-26T11:40:28.221Z,113034.66
2023-02-26T11:41:30.985Z,113034.66
2023-02-26T11:42:34.676Z,113164.86
2023-02-26T11:43:37.759Z,113295.05
2023-02-26T11:44:40.746Z,113425.25
2023-02-26T11:45:43.716Z,113295.05
2023-02-26T11:46:46.908Z,113164.86
2023-02-26T11:47:49.784Z,113034.66
2023-02-26T11:48:52.793Z,112644.11
2023-02-26T11:49:55.623Z,112774.28
2023-02-26T11:50:58.728Z,113034.66
2023-02-26T11:52:01.784Z,113164.86
2023-02-26T11:53:04.758Z,113425.25
2023-02-26T11:54:07.665Z,113685.67
2023-02-26T11:55:10.396Z,113685.67
2023-02-26T11:56:13.487Z,113685.67
2023-02-26T11:57:16.455Z,113815.89
2023-02-26T11:58:19.448Z,113685.67
2023-02-26T11:59:22.207Z,113685.67
2023-02-26T12:00:24.984Z,113685.67
2023-02-26T12:01:28.196Z,113685.67